Terminal Aerodrome Forecast
Issued by NWS

Home | Current Version | Previous Version | Text Only | Print | Product List | Glossary On
Versions: 1 2 3 4 5 6 7 8 9 10 11 12 13
104
FTUS46 KMFR 031130
TAFRBG
TAF
KRBG 031130Z 0312/0412 VRB03KT P6SM SCT020 OVC040
     FM032200 36010KT P6SM -SHRA SCT025 OVC035
     FM040200 VRB03KT P6SM -SHRA SCT020 OVC035=

USA.gov is the U.S. government's official web portal to all federal, state and local government web resources and services.